createdAt,value
2022-08-21T00:01:40.048Z,6.75
2022-08-21T00:04:08.335Z,7.93
2022-08-21T00:06:36.184Z,7.18
2022-08-21T00:09:06.669Z,6.53
2022-08-21T00:11:37.823Z,6.40
2022-08-21T00:14:06.990Z,6.63
2022-08-21T00:16:33.625Z,7.68
2022-08-21T00:19:00.477Z,7.53
2022-08-21T00:21:27.156Z,6.20
2022-08-21T00:23:53.986Z,6.78
2022-08-21T00:26:20.593Z,6.63
2022-08-21T00:28:47.579Z,7.57
2022-08-21T00:31:14.123Z,7.80
2022-08-21T00:33:40.664Z,7.40
2022-08-21T00:36:07.558Z,6.80
2022-08-21T00:38:34.736Z,7.90
2022-08-21T00:41:29.827Z,7.38
2022-08-21T00:43:52.880Z,7.13
2022-08-21T00:46:19.631Z,6.97
2022-08-21T00:48:46.303Z,7.38
2022-08-21T00:51:26.724Z,7.82
2022-08-21T00:53:58.621Z,7.25
2022-08-21T00:56:26.789Z,7.30
2022-08-21T00:58:55.016Z,7.50
2022-08-21T01:01:22.530Z,7.15
2022-08-21T01:03:50.442Z,7.85
2022-08-21T01:06:17.386Z,6.82
2022-08-21T01:08:47.117Z,7.45
2022-08-21T01:11:18.090Z,7.30
2022-08-21T01:13:47.456Z,7.80
2022-08-21T01:16:17.844Z,7.65
2022-08-21T01:18:45.431Z,7.75
2022-08-21T01:21:16.447Z,7.35
2022-08-21T01:23:48.094Z,7.43
2022-08-21T01:26:17.221Z,7.18
2022-08-21T01:31:16.258Z,7.18
2022-08-21T01:33:43.502Z,8.70
2022-08-21T01:36:10.470Z,8.65
2022-08-21T01:38:37.009Z,8.63
2022-08-21T01:41:03.603Z,7.57
2022-08-21T01:43:32.411Z,7.38
2022-08-21T01:46:05.898Z,7.90
2022-08-21T01:48:32.832Z,7.80
2022-08-21T01:51:00.300Z,7.22
2022-08-21T01:53:28.505Z,7.90
2022-08-21T01:56:00.254Z,8.52
2022-08-21T01:58:26.900Z,7.75
2022-08-21T02:00:53.537Z,7.80
2022-08-21T02:03:26.371Z,7.70
2022-08-21T02:06:03.384Z,8.38
2022-08-21T02:08:29.960Z,7.53
2022-08-21T02:10:56.498Z,6.45
2022-08-21T02:13:23.088Z,7.22
2022-08-21T02:15:49.748Z,7.57
2022-08-21T02:18:16.737Z,7.05
2022-08-21T02:20:48.231Z,7.72
2022-08-21T02:23:15.893Z,7.85
2022-08-21T02:25:43.207Z,7.85
2022-08-21T02:28:13.781Z,7.75
2022-08-21T02:30:48.231Z,7.72
2022-08-21T02:33:16.209Z,7.60
2022-08-21T02:35:44.587Z,7.65
2022-08-21T02:38:14.893Z,7.72
2022-08-21T02:40:48.185Z,7.43
2022-08-21T02:43:16.532Z,8.50
2022-08-21T02:45:44.226Z,8.05
2022-08-21T02:48:13.476Z,8.48
2022-08-21T02:50:52.259Z,7.68
2022-08-21T02:53:19.104Z,8.30
2022-08-21T02:55:48.278Z,7.65
2022-08-21T02:58:17.553Z,8.43
2022-08-21T03:00:44.959Z,7.30
2022-08-21T03:03:11.702Z,7.30
2022-08-21T03:05:38.714Z,7.72
2022-08-21T03:08:12.079Z,6.95
2022-08-21T03:10:40.924Z,7.05
2022-08-21T03:13:08.267Z,7.47
2022-08-21T03:15:35.001Z,6.60
2022-08-21T03:18:02.152Z,7.22
2022-08-21T03:20:29.800Z,8.45
2022-08-21T03:22:56.770Z,7.13
2022-08-21T03:25:39.990Z,6.60
2022-08-21T03:28:12.862Z,7.00
2022-08-21T03:30:48.092Z,7.57
2022-08-21T03:33:15.780Z,7.20
2022-08-21T03:35:49.925Z,7.85
2022-08-21T03:38:16.523Z,7.72
2022-08-21T03:40:44.239Z,7.75
2022-08-21T03:43:11.185Z,8.30
2022-08-21T03:45:38.856Z,7.80
2022-08-21T03:48:07.847Z,8.90
2022-08-21T03:50:41.243Z,7.28
2022-08-21T03:53:17.324Z,8.75
2022-08-21T03:55:49.830Z,7.68
2022-08-21T03:58:18.087Z,7.88
2022-08-21T04:00:49.937Z,7.65
2022-08-21T04:03:16.869Z,8.13
2022-08-21T04:05:46.212Z,10.25
2022-08-21T04:08:13.404Z,8.65
2022-08-21T04:10:41.118Z,7.65
2022-08-21T04:13:08.736Z,7.40
2022-08-21T04:15:36.022Z,8.40
2022-08-21T04:18:04.588Z,8.32
2022-08-21T04:20:31.182Z,7.35
2022-08-21T04:22:57.817Z,7.90
2022-08-21T04:25:26.511Z,7.80
2022-08-21T04:27:53.982Z,8.60
2022-08-21T04:30:20.898Z,8.88
2022-08-21T04:32:50.150Z,8.43
2022-08-21T04:35:19.776Z,8.65
2022-08-21T04:37:46.329Z,8.82
2022-08-21T04:40:15.363Z,8.27
2022-08-21T04:45:38.293Z,8.88
2022-08-21T04:48:13.727Z,8.43
2022-08-21T04:50:45.954Z,10.20
2022-08-21T04:53:20.723Z,9.35
2022-08-21T04:55:48.090Z,9.32
2022-08-21T04:58:18.527Z,9.32
2022-08-21T05:00:46.910Z,10.25
2022-08-21T05:03:17.531Z,10.32
2022-08-21T05:05:44.652Z,9.57
2022-08-21T05:08:15.449Z,9.55
2022-08-21T05:10:43.444Z,10.90
2022-08-21T05:13:10.904Z,11.00
2022-08-21T05:15:38.432Z,10.98
2022-08-21T05:18:05.030Z,11.35
2022-08-21T05:20:31.568Z,9.43
2022-08-21T05:22:58.782Z,11.00
2022-08-21T05:25:26.147Z,10.15
2022-08-21T05:27:54.846Z,10.50
2022-08-21T05:30:21.669Z,10.52
2022-08-21T05:32:48.823Z,10.60
2022-08-21T05:35:16.134Z,10.98
2022-08-21T05:37:42.686Z,11.38
2022-08-21T05:40:22.777Z,10.95
2022-08-21T05:42:54.594Z,10.27
2022-08-21T05:45:41.718Z,11.27
2022-08-21T05:48:11.693Z,9.18
2022-08-21T05:50:39.885Z,11.43
2022-08-21T05:53:08.004Z,10.83
2022-08-21T05:55:34.778Z,10.30
2022-08-21T05:58:01.717Z,10.45
2022-08-21T06:00:28.427Z,9.90
2022-08-21T06:02:55.184Z,10.02
2022-08-21T06:05:36.945Z,10.52
2022-08-21T06:08:04.925Z,10.95
2022-08-21T06:10:32.222Z,10.40
2022-08-21T06:12:59.020Z,11.07
2022-08-21T06:15:25.716Z,12.18
2022-08-21T06:17:54.342Z,11.57
2022-08-21T06:20:21.096Z,11.98
2022-08-21T06:22:47.903Z,11.63
2022-08-21T06:25:14.614Z,10.88
2022-08-21T06:27:41.181Z,11.52
2022-08-21T06:30:08.451Z,10.93
2022-08-21T06:32:35.715Z,10.50
2022-08-21T06:35:02.260Z,12.35
2022-08-21T06:37:29.073Z,13.30
2022-08-21T06:39:55.704Z,13.38
2022-08-21T06:42:22.406Z,12.85
2022-08-21T06:44:54.786Z,12.02
2022-08-21T06:47:21.294Z,13.27
2022-08-21T06:49:47.899Z,15.93
2022-08-21T06:52:15.228Z,15.02
2022-08-21T06:54:42.504Z,15.05
2022-08-21T06:57:09.131Z,14.77
2022-08-21T06:59:35.997Z,15.85
2022-08-21T07:02:02.763Z,14.70
2022-08-21T07:04:29.330Z,14.32
2022-08-21T07:06:55.943Z,15.00
2022-08-21T07:09:24.842Z,14.60
2022-08-21T07:11:54.674Z,14.95
2022-08-21T07:14:21.784Z,14.07
2022-08-21T07:16:49.571Z,14.82
2022-08-21T07:19:16.149Z,14.45
2022-08-21T07:21:42.744Z,14.05
2022-08-21T07:24:09.963Z,13.35
2022-08-21T07:26:36.488Z,14.07
2022-08-21T07:29:03.777Z,14.75
2022-08-21T07:31:30.451Z,14.95
2022-08-21T07:33:57.030Z,15.20
2022-08-21T07:36:23.688Z,15.45
2022-08-21T07:38:52.766Z,15.77
2022-08-21T07:41:23.531Z,14.02
2022-08-21T07:43:52.798Z,14.45
2022-08-21T07:46:20.629Z,14.77
2022-08-21T07:48:47.526Z,13.38
2022-08-21T07:51:16.378Z,15.38
2022-08-21T07:56:12.009Z,14.70
2022-08-21T07:58:38.818Z,14.93
2022-08-21T08:01:07.432Z,15.40
2022-08-21T08:03:34.320Z,13.77
2022-08-21T08:06:00.935Z,13.48
2022-08-21T08:08:28.566Z,14.52
2022-08-21T08:10:58.156Z,14.93
2022-08-21T08:13:25.502Z,14.43
2022-08-21T08:15:52.371Z,14.10
2022-08-21T08:18:19.132Z,15.20
2022-08-21T08:20:45.917Z,14.32
2022-08-21T08:23:13.874Z,14.65
2022-08-21T08:25:40.534Z,14.90
2022-08-21T08:28:16.955Z,13.65
2022-08-21T08:30:45.630Z,14.65
2022-08-21T08:33:12.557Z,14.82
2022-08-21T08:35:39.750Z,14.05
2022-08-21T08:38:06.749Z,14.45
2022-08-21T08:40:52.842Z,14.73
2022-08-21T08:43:20.170Z,14.15
2022-08-21T08:45:54.469Z,15.30
2022-08-21T08:48:53.039Z,13.15
2022-08-21T08:51:46.577Z,13.80
2022-08-21T08:54:18.997Z,15.50
2022-08-21T08:56:46.224Z,14.23
2022-08-21T08:59:19.014Z,13.77
2022-08-21T09:01:45.969Z,14.80
2022-08-21T09:04:14.550Z,12.73
2022-08-21T09:07:10.178Z,13.43
2022-08-21T09:09:39.648Z,13.60
2022-08-21T09:12:26.183Z,14.30
2022-08-21T09:15:23.043Z,12.55
2022-08-21T09:18:02.138Z,14.02
2022-08-21T09:20:49.400Z,12.38
2022-08-21T09:23:32.283Z,13.13
2022-08-21T09:26:07.597Z,12.65
2022-08-21T09:28:37.745Z,13.60
2022-08-21T09:31:12.792Z,13.07
2022-08-21T09:33:39.361Z,13.18
2022-08-21T09:36:06.172Z,13.20
2022-08-21T09:38:37.696Z,12.38
2022-08-21T09:41:09.890Z,13.70
2022-08-21T09:43:37.948Z,13.60
2022-08-21T09:46:13.630Z,12.50
2022-08-21T09:48:46.834Z,13.23
2022-08-21T09:51:18.525Z,13.70
2022-08-21T09:53:50.128Z,13.48
2022-08-21T09:56:47.202Z,13.77
2022-08-21T09:59:21.122Z,13.63
2022-08-21T10:01:54.799Z,12.02
2022-08-21T10:04:24.719Z,12.07
2022-08-21T10:06:51.388Z,13.70
2022-08-21T10:09:21.799Z,13.35
2022-08-21T10:11:57.363Z,13.18
2022-08-21T10:14:47.919Z,12.68
2022-08-21T10:17:29.473Z,13.40
2022-08-21T10:20:12.058Z,13.52
2022-08-21T10:22:57.647Z,12.30
2022-08-21T10:25:31.274Z,13.23
2022-08-21T10:28:45.100Z,13.57
2022-08-21T10:31:28.495Z,15.07
2022-08-21T10:34:19.422Z,14.52
2022-08-21T10:37:10.721Z,13.20
2022-08-21T10:40:16.738Z,14.70
2022-08-21T10:42:49.485Z,15.32
2022-08-21T10:45:48.681Z,14.68
2022-08-21T10:48:35.454Z,17.05
2022-08-21T10:51:40.596Z,14.88
2022-08-21T10:54:39.102Z,15.30
2022-08-21T10:57:31.980Z,15.07
2022-08-21T11:00:14.130Z,16.38
2022-08-21T11:02:43.388Z,18.38
2022-08-21T11:05:18.353Z,16.70
2022-08-21T11:07:52.652Z,17.48
2022-08-21T11:10:25.999Z,15.93
2022-08-21T11:13:00.097Z,19.02
2022-08-21T11:15:35.900Z,17.58
2022-08-21T11:18:24.346Z,17.42
2022-08-21T11:21:02.320Z,17.00
2022-08-21T11:23:58.503Z,18.47
2022-08-21T11:26:39.225Z,17.73
2022-08-21T11:29:17.560Z,18.10
2022-08-21T11:31:56.367Z,15.70
2022-08-21T11:37:21.108Z,15.90
2022-08-21T11:40:09.936Z,17.92
2022-08-21T11:42:52.296Z,17.92
2022-08-21T11:45:46.479Z,16.17
2022-08-21T11:48:24.455Z,16.67
2022-08-21T11:50:52.691Z,16.63
2022-08-21T11:53:27.157Z,15.75
2022-08-21T11:55:58.086Z,15.32
2022-08-21T11:58:47.730Z,17.15
2022-08-21T12:01:20.822Z,16.50
2022-08-21T12:03:57.946Z,17.58
2022-08-21T12:06:34.146Z,17.33
2022-08-21T12:09:08.702Z,18.95
2022-08-21T12:11:51.001Z,17.85
2022-08-21T12:14:20.326Z,14.55
2022-08-21T12:16:50.409Z,17.70
2022-08-21T12:19:25.890Z,17.08
2022-08-21T12:21:58.244Z,15.10
2022-08-21T12:24:27.871Z,16.13
2022-08-21T12:27:14.263Z,16.08
2022-08-21T12:29:48.156Z,17.00
2022-08-21T12:32:14.653Z,15.23
2022-08-21T12:34:49.437Z,14.60
2022-08-21T12:37:23.521Z,15.07
2022-08-21T12:39:53.422Z,13.27
2022-08-21T12:42:24.615Z,14.88
2022-08-21T12:44:56.224Z,13.98
2022-08-21T12:47:32.844Z,13.80
2022-08-21T12:50:14.014Z,14.73
2022-08-21T12:52:57.032Z,14.13
2022-08-21T12:55:32.844Z,13.70
2022-08-21T12:57:59.936Z,14.60
2022-08-21T13:00:30.476Z,14.23
2022-08-21T13:02:58.326Z,14.05
2022-08-21T13:05:34.507Z,13.98
2022-08-21T13:08:05.790Z,14.90
2022-08-21T13:10:35.007Z,15.35
2022-08-21T13:13:12.739Z,13.40
2022-08-21T13:15:41.990Z,14.57
2022-08-21T13:18:28.576Z,14.55
2022-08-21T13:21:12.098Z,13.95
2022-08-21T13:23:38.844Z,13.77
2022-08-21T13:26:18.387Z,14.27
2022-08-21T13:28:48.531Z,14.02
2022-08-21T13:31:23.164Z,13.57
2022-08-21T13:33:51.418Z,14.05
2022-08-21T13:36:25.246Z,13.15
2022-08-21T13:38:53.786Z,14.98
2022-08-21T13:41:26.826Z,13.65
2022-08-21T13:44:18.432Z,13.35
2022-08-21T13:46:48.926Z,13.18
2022-08-21T13:49:19.548Z,12.98
2022-08-21T13:51:47.724Z,13.18
2022-08-21T13:54:21.376Z,13.20
2022-08-21T13:56:48.172Z,13.55
2022-08-21T13:59:27.288Z,14.63
2022-08-21T14:02:00.035Z,14.60
2022-08-21T14:04:57.691Z,13.63
2022-08-21T14:07:37.924Z,13.73
2022-08-21T14:10:12.619Z,12.93
2022-08-21T14:12:44.406Z,12.77
2022-08-21T14:15:15.470Z,14.50
2022-08-21T14:17:43.325Z,14.15
2022-08-21T14:20:13.207Z,12.90
2022-08-21T14:22:42.118Z,14.45
2022-08-21T14:25:11.776Z,13.52
2022-08-21T14:27:45.688Z,12.82
2022-08-21T14:30:27.044Z,13.00
2022-08-21T14:32:54.240Z,13.55
2022-08-21T14:35:23.799Z,12.05
2022-08-21T14:37:51.538Z,15.18
2022-08-21T14:40:19.743Z,14.95
2022-08-21T14:42:47.543Z,14.13
2022-08-21T14:45:24.408Z,15.98
2022-08-21T14:47:53.937Z,14.50
2022-08-21T14:50:20.800Z,15.05
2022-08-21T14:52:47.409Z,16.08
2022-08-21T14:55:15.338Z,15.63
2022-08-21T14:57:45.664Z,15.55
2022-08-21T15:00:14.766Z,15.07
2022-08-21T15:02:41.294Z,14.50
2022-08-21T15:05:08.067Z,15.00
2022-08-21T15:07:34.600Z,14.85
2022-08-21T15:10:01.194Z,14.95
2022-08-21T15:12:28.221Z,15.30
2022-08-21T15:14:54.990Z,14.90
2022-08-21T15:17:21.609Z,14.73
2022-08-21T15:19:48.312Z,15.68
2022-08-21T15:22:18.556Z,17.00
2022-08-21T15:24:54.130Z,16.60
2022-08-21T15:27:20.766Z,16.23
2022-08-21T15:29:47.530Z,16.15
2022-08-21T15:32:23.991Z,16.50
2022-08-21T15:34:52.192Z,16.10
2022-08-21T15:37:19.759Z,15.63
2022-08-21T15:39:51.088Z,16.65
2022-08-21T15:42:20.714Z,17.42
2022-08-21T15:44:48.693Z,17.80
2022-08-21T15:47:26.229Z,19.10
2022-08-21T15:49:52.849Z,19.38
2022-08-21T15:52:22.163Z,17.88
2022-08-21T15:54:49.251Z,18.95
2022-08-21T15:57:21.137Z,17.95
2022-08-21T15:59:54.496Z,17.33
2022-08-21T16:02:28.762Z,16.33
2022-08-21T16:04:55.494Z,18.83
2022-08-21T16:07:22.070Z,20.30
2022-08-21T16:09:48.606Z,20.15
2022-08-21T16:12:23.543Z,18.05
2022-08-21T16:14:51.951Z,19.35
2022-08-21T16:17:19.232Z,18.80
2022-08-21T16:19:46.410Z,20.67
2022-08-21T16:22:12.959Z,20.80
2022-08-21T16:24:39.512Z,19.00
2022-08-21T16:27:08.003Z,19.08
2022-08-21T16:29:37.425Z,17.38
2022-08-21T16:32:05.868Z,16.35
2022-08-21T16:34:32.646Z,14.40
2022-08-21T16:36:59.270Z,13.90
2022-08-21T16:39:26.050Z,14.63
2022-08-21T16:41:52.703Z,14.70
2022-08-21T16:44:21.874Z,15.45
2022-08-21T16:46:48.991Z,13.90
2022-08-21T16:49:15.649Z,14.52
2022-08-21T16:51:43.433Z,12.77
2022-08-21T16:54:10.788Z,11.98
2022-08-21T16:56:40.043Z,12.30
2022-08-21T16:59:07.696Z,11.43
2022-08-21T17:01:36.576Z,11.25
2022-08-21T17:06:31.285Z,9.70
2022-08-21T17:08:59.315Z,9.02
2022-08-21T17:11:37.280Z,10.33
2022-08-21T17:14:15.104Z,9.43
2022-08-21T17:16:46.081Z,9.80
2022-08-21T17:19:13.437Z,10.90
2022-08-21T17:21:40.146Z,14.38
2022-08-21T17:24:06.727Z,12.02
2022-08-21T17:26:33.613Z,11.60
2022-08-21T17:29:00.711Z,11.05
2022-08-21T17:31:28.004Z,11.63
2022-08-21T17:33:54.660Z,11.27
2022-08-21T17:36:29.491Z,10.55
2022-08-21T17:38:57.203Z,11.73
2022-08-21T17:41:24.162Z,13.05
2022-08-21T17:43:51.657Z,14.43
2022-08-21T17:46:24.810Z,12.88
2022-08-21T17:48:51.535Z,11.63
2022-08-21T17:51:18.541Z,12.25
2022-08-21T17:53:45.395Z,12.02
2022-08-21T17:56:15.161Z,15.73
2022-08-21T17:58:49.565Z,15.10
2022-08-21T18:01:17.469Z,14.93
2022-08-21T18:03:47.115Z,12.97
2022-08-21T18:06:17.427Z,13.38
2022-08-21T18:08:44.902Z,12.32
2022-08-21T18:11:11.657Z,13.13
2022-08-21T18:13:51.980Z,12.75
2022-08-21T18:16:19.579Z,12.02
2022-08-21T18:18:49.099Z,11.02
2022-08-21T18:21:15.839Z,13.52
2022-08-21T18:23:44.320Z,14.15
2022-08-21T18:26:14.693Z,11.93
2022-08-21T18:28:42.284Z,11.57
2022-08-21T18:31:11.781Z,10.98
2022-08-21T18:33:43.723Z,10.65
2022-08-21T18:36:25.354Z,11.48
2022-08-21T18:38:52.819Z,10.95
2022-08-21T18:41:19.446Z,9.93
2022-08-21T18:43:46.164Z,10.43
2022-08-21T18:46:12.834Z,12.98
2022-08-21T18:48:40.484Z,12.23
2022-08-21T18:51:07.107Z,10.85
2022-08-21T18:53:33.821Z,9.32
2022-08-21T18:56:05.448Z,9.27
2022-08-21T18:58:33.309Z,9.35
2022-08-21T19:01:00.088Z,9.30
2022-08-21T19:03:26.894Z,7.93
2022-08-21T19:05:54.836Z,8.48
2022-08-21T19:08:23.840Z,8.75
2022-08-21T19:10:55.378Z,7.80
2022-08-21T19:13:22.912Z,8.90
2022-08-21T19:15:53.032Z,8.30
2022-08-21T19:18:27.870Z,9.00
2022-08-21T19:20:55.437Z,8.32
2022-08-21T19:26:12.132Z,9.18
2022-08-21T19:28:45.967Z,8.60
2022-08-21T19:31:25.250Z,7.63
2022-08-21T19:34:01.489Z,6.15
2022-08-21T19:36:29.057Z,6.70
2022-08-21T19:38:55.771Z,5.90
2022-08-21T19:41:25.158Z,6.55
2022-08-21T19:43:54.669Z,6.60
2022-08-21T19:46:28.514Z,5.55
2022-08-21T19:48:55.830Z,5.60
2022-08-21T19:51:23.317Z,5.95
2022-08-21T19:53:56.916Z,5.93
2022-08-21T19:56:26.152Z,6.13
2022-08-21T20:01:22.071Z,7.05
2022-08-21T20:03:53.708Z,6.13
2022-08-21T20:06:22.091Z,7.22
2022-08-21T20:08:51.494Z,5.90
2022-08-21T20:11:26.621Z,6.18
2022-08-21T20:13:54.340Z,6.65
2022-08-21T20:16:21.626Z,6.70
2022-08-21T20:18:49.025Z,7.20
2022-08-21T20:21:18.660Z,6.72
2022-08-21T20:23:48.835Z,6.80
2022-08-21T20:26:16.595Z,6.88
2022-08-21T20:28:43.612Z,8.27
2022-08-21T20:31:10.665Z,7.93
2022-08-21T20:33:37.985Z,6.90
2022-08-21T20:36:04.932Z,6.65
2022-08-21T20:38:31.798Z,5.80
2022-08-21T20:40:59.504Z,6.72
2022-08-21T20:43:26.790Z,6.53
2022-08-21T20:45:55.284Z,5.68
2022-08-21T20:48:49.319Z,6.30
2022-08-21T20:51:35.952Z,5.78
2022-08-21T20:54:14.838Z,5.10
2022-08-21T20:57:00.002Z,5.35
2022-08-21T20:59:32.946Z,5.97
2022-08-21T21:02:15.951Z,5.10
2022-08-21T21:04:47.379Z,5.40
2022-08-21T21:07:21.387Z,4.97
2022-08-21T21:09:53.779Z,5.18
2022-08-21T21:12:28.163Z,5.07
2022-08-21T21:15:00.413Z,4.95
2022-08-21T21:17:47.606Z,5.03
2022-08-21T21:20:21.461Z,4.60
2022-08-21T21:22:57.593Z,4.68
2022-08-21T21:25:40.110Z,4.90
2022-08-21T21:28:13.013Z,4.70
2022-08-21T21:30:46.507Z,4.28
2022-08-21T21:33:16.486Z,4.68
2022-08-21T21:35:51.466Z,4.60
2022-08-21T21:38:51.494Z,4.82
2022-08-21T21:41:47.064Z,4.43
2022-08-21T21:44:35.410Z,4.70
2022-08-21T21:47:13.553Z,4.72
2022-08-21T21:49:50.214Z,4.43
2022-08-21T21:52:38.203Z,4.35
2022-08-21T21:55:42.889Z,5.47
2022-08-21T21:58:57.033Z,5.25
2022-08-21T22:01:34.252Z,4.63
2022-08-21T22:04:03.953Z,5.05
2022-08-21T22:06:55.881Z,4.70
2022-08-21T22:09:37.710Z,4.25
2022-08-21T22:12:29.912Z,4.80
2022-08-21T22:14:57.356Z,5.20
2022-08-21T22:17:41.124Z,5.07
2022-08-21T22:20:15.235Z,4.78
2022-08-21T22:23:01.089Z,5.25
2022-08-21T22:25:33.341Z,5.30
2022-08-21T22:28:15.859Z,5.85
2022-08-21T22:31:14.719Z,5.60
2022-08-21T22:34:05.386Z,5.45
2022-08-21T22:36:38.200Z,5.38
2022-08-21T22:39:08.363Z,5.53
2022-08-21T22:41:41.221Z,5.85
2022-08-21T22:44:18.195Z,4.55
2022-08-21T22:46:56.135Z,5.60
2022-08-21T22:49:34.130Z,4.87
2022-08-21T22:52:31.859Z,5.03
2022-08-21T22:55:04.231Z,4.78
2022-08-21T22:57:34.316Z,5.05
2022-08-21T23:00:11.011Z,5.43
2022-08-21T23:02:58.614Z,4.60
2022-08-21T23:05:36.566Z,5.43
2022-08-21T23:08:24.177Z,4.97
2022-08-21T23:10:57.449Z,5.72
2022-08-21T23:13:24.024Z,6.40
2022-08-21T23:16:05.747Z,5.93
2022-08-21T23:18:42.859Z,5.72
2022-08-21T23:21:15.529Z,4.93
2022-08-21T23:24:02.587Z,6.15
2022-08-21T23:26:46.953Z,5.53
2022-08-21T23:29:47.699Z,7.38
2022-08-21T23:32:39.188Z,5.78
2022-08-21T23:35:51.903Z,5.82
2022-08-21T23:38:50.899Z,6.40
2022-08-21T23:41:42.743Z,6.13
2022-08-21T23:44:25.672Z,6.00
2022-08-21T23:47:30.028Z,6.65
2022-08-21T23:53:36.187Z,6.88
2022-08-21T23:56:14.242Z,6.03
2022-08-21T23:59:34.911Z,6.55
